RJTL(METAR)
12/04 21:00
METAR RJTL 041200Z 36003KT 330V040 9999 FEW020 BKN160 10/04 Q1019
RMK 1CU020 7AC160 A3010=
戻る
トップページへ戻る
IMOC Co,.Ltd.